createdAt,value
2022-12-27T00:02:58.305Z,100831.25
2022-12-27T00:06:19.267Z,100823.78
2022-12-27T00:09:28.033Z,100831.50
2022-12-27T00:12:50.268Z,100845.62
2022-12-27T00:15:52.245Z,100840.31
2022-12-27T00:19:08.235Z,100838.69
2022-12-27T00:22:16.971Z,100830.22
2022-12-27T00:25:25.295Z,100826.75
2022-12-27T00:28:34.938Z,100815.91
2022-12-27T00:31:43.355Z,100812.91
2022-12-27T00:34:51.998Z,100808.12
2022-12-27T00:38:07.240Z,100811.34
2022-12-27T00:41:16.274Z,100823.37
2022-12-27T00:44:31.238Z,100828.69
2022-12-27T00:47:33.225Z,100828.12
2022-12-27T00:50:50.282Z,100818.56
2022-12-27T00:54:05.284Z,100809.19
2022-12-27T00:57:13.919Z,100795.81
2022-12-27T01:00:36.266Z,100792.81
2022-12-27T01:03:45.291Z,100805.56
2022-12-27T01:07:00.258Z,100797.84
2022-12-27T01:10:02.606Z,100794.91
2022-12-27T01:13:17.251Z,100785.81
2022-12-27T01:16:34.300Z,100793.31
2022-12-27T01:19:44.270Z,100781.31
2022-12-27T01:23:01.284Z,100783.41
2022-12-27T01:26:22.284Z,100787.44
2022-12-27T01:29:37.249Z,100776.81
2022-12-27T01:32:52.273Z,100783.41
2022-12-27T01:36:01.249Z,100789.53
2022-12-27T01:39:12.331Z,100765.38
2022-12-27T01:42:25.245Z,100782.34
2022-12-27T01:45:36.771Z,100789.37
2022-12-27T01:48:46.268Z,100795.00
2022-12-27T01:51:54.992Z,100790.25
2022-12-27T01:55:19.277Z,100798.00
2022-12-27T01:58:39.252Z,100803.37
2022-12-27T02:02:01.397Z,100801.28
2022-12-27T02:05:04.175Z,100798.88
2022-12-27T02:08:37.261Z,100801.44
2022-12-27T02:11:42.183Z,100798.78
2022-12-27T02:14:57.241Z,100815.72
2022-12-27T02:17:59.460Z,100794.62
2022-12-27T02:21:40.241Z,100810.97
2022-12-27T02:25:29.259Z,100802.72
2022-12-27T02:29:30.048Z,100824.56
2022-12-27T02:33:24.257Z,100818.22
2022-12-27T02:36:38.279Z,100823.84
2022-12-27T02:39:56.260Z,100815.12
2022-12-27T02:43:05.328Z,100799.72
2022-12-27T02:46:22.353Z,100783.47
2022-12-27T02:49:43.245Z,100789.72
2022-12-27T02:53:13.256Z,100786.56
2022-12-27T02:57:06.250Z,100795.28
2022-12-27T03:00:24.846Z,100798.69
2022-12-27T03:03:48.246Z,100802.34
2022-12-27T03:07:22.239Z,100802.25
2022-12-27T03:11:01.284Z,100816.84
2022-12-27T03:14:23.433Z,100813.37
2022-12-27T03:17:50.239Z,100803.16
2022-12-27T03:21:00.299Z,100815.81
2022-12-27T03:24:17.247Z,100825.47
2022-12-27T03:27:33.272Z,100807.09
2022-12-27T03:34:46.212Z,100817.78
2022-12-27T03:37:53.192Z,100827.69
2022-12-27T03:41:13.221Z,100822.91
2022-12-27T03:44:28.191Z,100827.69
2022-12-27T03:47:30.006Z,100822.22
2022-12-27T03:50:53.191Z,100838.16
2022-12-27T03:54:02.320Z,100841.25
2022-12-27T03:57:30.187Z,100840.53
2022-12-27T04:00:45.216Z,100850.31
2022-12-27T04:03:53.896Z,100855.69
2022-12-27T04:07:02.200Z,100852.62
2022-12-27T04:10:19.215Z,100856.75
2022-12-27T04:13:27.820Z,100856.12
2022-12-27T04:16:42.245Z,100859.69
2022-12-27T04:19:50.886Z,100871.75
2022-12-27T04:22:59.189Z,100875.38
2022-12-27T04:26:14.168Z,100871.72
2022-12-27T04:29:16.157Z,100871.28
2022-12-27T04:32:31.190Z,100869.31
2022-12-27T04:35:39.928Z,100889.84
2022-12-27T04:38:48.204Z,100895.09
2022-12-27T04:41:56.805Z,100907.53
2022-12-27T04:45:18.189Z,100915.50
2022-12-27T04:48:36.226Z,100922.44
2022-12-27T04:51:44.861Z,100918.22
2022-12-27T04:54:53.211Z,100923.78
2022-12-27T04:58:01.793Z,100922.06
2022-12-27T05:01:17.213Z,100941.41
2022-12-27T05:04:27.030Z,100940.94
2022-12-27T05:07:35.199Z,100947.16
2022-12-27T05:10:50.194Z,100957.06
2022-12-27T05:14:05.194Z,100968.84
2022-12-27T05:17:13.190Z,100950.13
2022-12-27T05:20:21.964Z,100959.88
2022-12-27T05:23:30.190Z,100966.91
2022-12-27T05:26:39.114Z,100962.22
2022-12-27T05:29:54.164Z,100964.66
2022-12-27T05:33:03.505Z,100975.78
2022-12-27T05:36:12.176Z,100979.16
2022-12-27T05:39:20.785Z,100981.44
2022-12-27T05:42:35.185Z,100987.38
2022-12-27T05:45:43.772Z,100989.75
2022-12-27T05:48:52.192Z,100996.41
2022-12-27T05:52:07.192Z,100989.97
2022-12-27T05:55:09.561Z,100993.84
2022-12-27T05:58:24.196Z,101005.63
2022-12-27T06:01:32.693Z,101004.38
2022-12-27T06:04:47.212Z,101025.62
2022-12-27T06:07:55.808Z,101038.94
2022-12-27T06:11:19.200Z,101038.13
2022-12-27T06:14:34.193Z,101037.31
2022-12-27T06:17:42.195Z,101028.09
2022-12-27T06:20:57.197Z,101048.72
2022-12-27T06:24:12.204Z,101051.47
2022-12-27T06:27:14.222Z,101048.56
2022-12-27T06:30:34.324Z,101045.34
2022-12-27T06:33:44.208Z,101048.47
2022-12-27T06:36:59.186Z,101046.53
2022-12-27T06:40:08.423Z,101056.47
2022-12-27T06:43:17.196Z,101073.25
2022-12-27T06:46:25.989Z,101069.69
2022-12-27T06:49:34.180Z,101076.00
2022-12-27T06:52:42.815Z,101083.88
2022-12-27T06:55:51.174Z,101092.59
2022-12-27T06:58:59.801Z,101101.84
2022-12-27T07:02:21.243Z,101092.22
2022-12-27T07:05:23.216Z,101098.06
2022-12-27T07:08:39.189Z,101077.13
2022-12-27T07:11:54.196Z,101091.09
2022-12-27T07:15:11.168Z,101104.50
2022-12-27T07:18:19.184Z,101112.69
2022-12-27T07:21:36.186Z,101117.63
2022-12-27T07:24:44.774Z,101120.84
2022-12-27T07:27:59.171Z,101116.75
2022-12-27T07:31:09.980Z,101118.28
2022-12-27T07:34:18.209Z,101124.94
2022-12-27T07:37:26.787Z,101134.53
2022-12-27T07:40:44.176Z,101119.03
2022-12-27T07:43:53.193Z,101124.03
2022-12-27T07:47:01.864Z,101131.09
2022-12-27T07:50:17.222Z,101134.69
2022-12-27T07:53:20.486Z,101126.28
2022-12-27T07:56:36.202Z,101147.69
2022-12-27T07:59:51.185Z,101151.44
2022-12-27T08:03:07.221Z,101124.22
2022-12-27T08:06:23.352Z,101176.44
2022-12-27T08:09:37.186Z,101178.88
2022-12-27T08:12:52.176Z,101204.28
2022-12-27T08:16:07.271Z,101189.06
2022-12-27T08:19:09.300Z,101189.87
2022-12-27T08:22:24.295Z,101214.50
2022-12-27T08:25:26.518Z,101218.00
2022-12-27T08:28:42.218Z,101243.72
2022-12-27T08:31:50.841Z,101245.53
2022-12-27T08:35:12.041Z,101241.19
2022-12-27T08:38:27.847Z,101243.53
2022-12-27T08:41:42.187Z,101254.56
2022-12-27T08:44:50.169Z,101232.78
2022-12-27T08:47:59.960Z,101250.72
2022-12-27T08:51:24.792Z,101256.09
2022-12-27T08:54:40.807Z,101257.53
2022-12-27T08:57:55.205Z,101276.97
2022-12-27T09:01:08.486Z,101278.81
2022-12-27T09:04:23.177Z,101278.19
2022-12-27T09:07:32.584Z,101274.31
2022-12-27T09:10:41.201Z,101271.06
2022-12-27T09:13:56.186Z,101291.69
2022-12-27T09:17:04.745Z,101281.81
2022-12-27T09:20:19.191Z,101265.72
2022-12-27T09:23:28.031Z,101259.28
2022-12-27T09:26:43.198Z,101273.19
2022-12-27T09:29:48.399Z,101283.38
2022-12-27T09:33:05.175Z,101271.13
2022-12-27T09:36:29.207Z,101254.88
2022-12-27T09:39:38.085Z,101299.28
2022-12-27T09:43:23.929Z,101310.25
2022-12-27T09:46:46.253Z,101282.75
2022-12-27T09:50:00.222Z,101254.13
2022-12-27T09:53:38.354Z,101271.91
2022-12-27T09:57:18.167Z,101271.00
2022-12-27T10:00:34.191Z,101265.97
2022-12-27T10:03:58.217Z,101286.91
2022-12-27T10:07:29.185Z,101288.28
2022-12-27T10:10:46.158Z,101299.06
2022-12-27T10:14:01.283Z,101270.16
2022-12-27T10:17:41.210Z,101299.88
2022-12-27T10:20:59.183Z,101291.75
2022-12-27T10:24:20.787Z,101298.44
2022-12-27T10:27:35.204Z,101315.94
2022-12-27T10:30:44.897Z,101345.87
2022-12-27T10:34:03.922Z,101320.50
2022-12-27T10:37:22.205Z,101329.59
2022-12-27T10:40:57.193Z,101325.03
2022-12-27T10:44:12.716Z,101313.97
2022-12-27T10:47:23.166Z,101323.84
2022-12-27T10:50:31.883Z,101309.84
2022-12-27T10:53:53.172Z,101296.38
2022-12-27T10:57:03.293Z,101311.94
2022-12-27T11:00:28.242Z,101285.53
2022-12-27T11:03:36.793Z,101311.69
2022-12-27T11:06:53.175Z,101328.28
2022-12-27T11:10:16.090Z,101315.66
2022-12-27T11:13:26.429Z,101366.53
2022-12-27T11:16:44.227Z,101145.50
2022-12-27T11:19:54.181Z,101330.12
2022-12-27T11:23:10.750Z,101347.19
2022-12-27T11:26:53.538Z,101331.41
2022-12-27T11:30:09.209Z,101334.72
2022-12-27T11:33:26.961Z,101299.66
2022-12-27T11:36:47.193Z,101323.56
2022-12-27T11:39:52.071Z,101324.63
2022-12-27T11:43:21.173Z,101349.44
2022-12-27T11:46:45.240Z,101345.09
2022-12-27T11:49:55.649Z,101352.84
2022-12-27T11:53:56.316Z,101348.47
2022-12-27T11:57:39.675Z,101360.44
2022-12-27T12:01:33.196Z,101371.44
2022-12-27T12:05:27.201Z,101371.28
2022-12-27T12:09:20.230Z,101360.75
2022-12-27T12:12:34.446Z,101373.19
2022-12-27T12:15:56.314Z,101368.31
2022-12-27T12:19:28.181Z,101361.28
2022-12-27T12:22:52.183Z,101386.72
2022-12-27T12:26:09.761Z,101371.53
2022-12-27T12:29:39.251Z,101363.28
2022-12-27T12:33:12.161Z,101370.03
2022-12-27T12:36:23.647Z,101377.47
2022-12-27T12:40:05.187Z,101390.00
2022-12-27T12:43:29.187Z,101386.44
2022-12-27T12:47:09.145Z,101376.81
2022-12-27T12:50:57.267Z,101374.03
2022-12-27T12:54:11.566Z,101385.19
2022-12-27T12:57:26.183Z,101386.78
2022-12-27T13:01:03.256Z,101410.66
2022-12-27T13:04:52.164Z,101409.41
2022-12-27T13:08:16.223Z,101409.34
2022-12-27T13:12:15.167Z,101426.34
2022-12-27T13:15:35.170Z,101406.44
2022-12-27T13:19:15.198Z,101410.50
2022-12-27T13:23:01.620Z,101435.88
2022-12-27T13:26:31.194Z,101431.81
2022-12-27T13:30:31.543Z,101432.63
2022-12-27T13:34:33.646Z,101437.47
2022-12-27T13:38:23.188Z,101448.25
2022-12-27T13:42:01.183Z,101451.63
2022-12-27T13:45:28.161Z,101457.41
2022-12-27T13:49:31.554Z,101454.19
2022-12-27T13:53:01.214Z,101462.62
2022-12-27T13:56:52.800Z,101465.97
2022-12-27T14:00:26.172Z,101470.94
2022-12-27T14:04:13.162Z,101459.94
2022-12-27T14:07:40.185Z,101450.44
2022-12-27T14:10:55.300Z,101468.94
2022-12-27T14:14:17.173Z,101482.72
2022-12-27T14:17:50.641Z,101487.31
2022-12-27T14:21:18.180Z,101497.59
2022-12-27T14:25:07.180Z,101499.34
2022-12-27T14:28:37.152Z,101511.25
2022-12-27T14:32:20.171Z,101526.84
2022-12-27T14:35:59.203Z,101514.75
2022-12-27T14:39:19.715Z,101522.75
2022-12-27T14:43:05.166Z,101537.06
2022-12-27T14:46:32.134Z,101536.13
2022-12-27T14:50:24.146Z,101548.81
2022-12-27T14:53:35.567Z,101558.44
2022-12-27T14:57:05.155Z,101556.66
2022-12-27T15:00:34.192Z,101560.75
2022-12-27T15:03:48.701Z,101560.34
2022-12-27T15:07:29.160Z,101566.78
2022-12-27T15:11:03.185Z,101574.16
2022-12-27T15:14:16.641Z,101580.75
2022-12-27T15:17:53.173Z,101587.50
2022-12-27T15:21:17.235Z,101589.06
2022-12-27T15:25:00.177Z,101592.16
2022-12-27T15:28:34.176Z,101601.59
2022-12-27T15:31:45.632Z,101598.34
2022-12-27T15:35:03.137Z,101598.34
2022-12-27T15:38:15.860Z,101604.53
2022-12-27T15:42:02.172Z,101606.59
2022-12-27T15:45:22.768Z,101598.03
2022-12-27T15:48:46.114Z,101611.16
2022-12-27T15:52:41.187Z,101618.53
2022-12-27T15:56:33.191Z,101616.53
2022-12-27T15:59:55.626Z,101620.44
2022-12-27T16:03:45.240Z,101635.78
2022-12-27T16:07:04.168Z,101632.53
2022-12-27T16:10:37.151Z,101636.38
2022-12-27T16:13:48.424Z,101641.09
2022-12-27T16:17:01.177Z,101650.16
2022-12-27T16:20:20.723Z,101651.41
2022-12-27T16:23:32.161Z,101642.88
2022-12-27T16:27:08.194Z,101640.03
2022-12-27T16:31:00.271Z,101642.72
2022-12-27T16:34:28.171Z,101644.97
2022-12-27T16:37:45.294Z,101639.91
2022-12-27T16:41:19.151Z,101649.91
2022-12-27T16:44:38.243Z,101653.22
2022-12-27T16:48:18.193Z,101655.09
2022-12-27T16:52:08.172Z,101644.06
2022-12-27T16:55:51.173Z,101645.16
2022-12-27T16:59:00.186Z,101640.31
2022-12-27T17:02:37.416Z,101640.41
2022-12-27T17:06:30.102Z,101655.13
2022-12-27T17:09:15.137Z,101654.59
2022-12-27T17:12:33.165Z,101645.41
2022-12-27T17:16:05.233Z,101655.44
2022-12-27T17:19:27.151Z,101675.22
2022-12-27T17:22:39.146Z,101672.19
2022-12-27T17:26:04.229Z,101673.00
2022-12-27T17:29:45.173Z,101684.25
2022-12-27T17:33:02.136Z,101685.25
2022-12-27T17:36:35.175Z,101689.31
2022-12-27T17:39:49.447Z,101683.00
2022-12-27T17:43:18.143Z,101696.28
2022-12-27T17:47:01.431Z,101711.78
2022-12-27T17:50:21.166Z,101705.09
2022-12-27T17:53:36.165Z,101707.13
2022-12-27T17:57:02.269Z,101707.94
2022-12-27T18:00:13.162Z,101712.19
2022-12-27T18:03:36.239Z,101707.50
2022-12-27T18:06:45.132Z,101726.41
2022-12-27T18:10:21.456Z,101727.41
2022-12-27T18:13:33.676Z,101733.34
2022-12-27T18:16:46.196Z,101735.34
2022-12-27T18:19:55.255Z,101742.47
2022-12-27T18:23:10.155Z,101737.56
2022-12-27T18:26:14.741Z,101744.72
2022-12-27T18:29:29.139Z,101749.97
2022-12-27T18:32:32.071Z,101749.94
2022-12-27T18:35:51.144Z,101750.91
2022-12-27T18:39:07.138Z,101747.19
2022-12-27T18:42:31.054Z,101750.03
2022-12-27T18:45:40.180Z,101752.91
2022-12-27T18:48:56.150Z,101732.91
2022-12-27T18:52:21.290Z,101737.44
2022-12-27T18:55:37.513Z,101734.78
2022-12-27T18:59:05.803Z,101744.84
2022-12-27T19:02:41.532Z,101745.34
2022-12-27T19:06:10.488Z,101747.63
2022-12-27T19:09:21.296Z,101754.34
2022-12-27T19:12:41.182Z,101749.03
2022-12-27T19:15:50.994Z,101734.41
2022-12-27T19:19:33.389Z,101751.97
2022-12-27T19:22:50.140Z,101745.03
2022-12-27T19:26:22.309Z,101754.00
2022-12-27T19:29:36.541Z,101771.91
2022-12-27T19:32:50.467Z,101758.41
2022-12-27T19:36:00.521Z,101755.97
2022-12-27T19:39:32.177Z,101754.91
2022-12-27T19:42:42.115Z,101763.66
2022-12-27T19:45:50.779Z,101748.13
2022-12-27T19:52:34.467Z,101766.00
2022-12-27T19:55:43.136Z,101768.22
2022-12-27T19:58:51.837Z,101764.16
2022-12-27T20:02:01.668Z,101759.47
2022-12-27T20:05:18.146Z,101769.66
2022-12-27T20:08:50.530Z,101770.91
2022-12-27T20:12:06.134Z,101759.88
2022-12-27T20:15:21.122Z,101745.22
2022-12-27T20:18:29.714Z,101754.63
2022-12-27T20:21:46.326Z,101753.19
2022-12-27T20:25:01.129Z,101746.25
2022-12-27T20:28:04.409Z,101733.59
2022-12-27T20:31:23.174Z,101736.62
2022-12-27T20:34:39.131Z,101757.41
2022-12-27T20:37:48.007Z,101752.91
2022-12-27T20:41:03.136Z,101764.09
2022-12-27T20:44:05.579Z,101772.03
2022-12-27T20:47:21.595Z,101776.47
2022-12-27T20:50:30.196Z,101777.69
2022-12-27T20:53:39.140Z,101773.25
2022-12-27T20:56:48.139Z,101773.53
2022-12-27T20:59:57.112Z,101766.22
2022-12-27T21:03:19.422Z,101778.00
2022-12-27T21:06:25.451Z,101786.75
2022-12-27T21:09:40.122Z,101787.97
2022-12-27T21:12:48.845Z,101786.72
2022-12-27T21:15:57.116Z,101786.50
2022-12-27T21:19:06.517Z,101789.59
2022-12-27T21:22:21.176Z,101782.84
2022-12-27T21:25:30.133Z,101792.41
2022-12-27T21:28:45.133Z,101794.81
2022-12-27T21:31:53.806Z,101789.09
2022-12-27T21:35:02.135Z,101747.88
2022-12-27T21:38:10.765Z,101799.91
2022-12-27T21:41:24.177Z,101802.91
2022-12-27T21:44:32.758Z,101804.56
2022-12-27T21:47:47.110Z,101798.84
2022-12-27T21:50:49.536Z,101790.47
2022-12-27T21:54:04.123Z,101784.97
2022-12-27T21:57:13.116Z,101798.00
2022-12-27T22:00:21.864Z,101788.69
2022-12-27T22:03:46.326Z,101798.03
2022-12-27T22:06:54.829Z,101793.19
2022-12-27T22:10:10.115Z,101793.19
2022-12-27T22:13:25.101Z,101798.69
2022-12-27T22:16:36.234Z,101800.50
2022-12-27T22:19:51.103Z,101796.66
2022-12-27T22:22:53.019Z,101801.53
2022-12-27T22:26:08.124Z,101797.69
2022-12-27T22:29:16.767Z,101796.28
2022-12-27T22:32:25.106Z,101791.62
2022-12-27T22:35:41.130Z,101797.53
2022-12-27T22:38:50.732Z,101797.72
2022-12-27T22:42:05.118Z,101805.47
2022-12-27T22:45:14.182Z,101797.72
2022-12-27T22:48:22.782Z,101789.78
2022-12-27T22:51:39.097Z,101791.62
2022-12-27T22:55:03.999Z,101778.59
2022-12-27T22:58:15.112Z,101767.34
2022-12-27T23:01:36.159Z,101770.41
2022-12-27T23:04:58.147Z,101768.78
2022-12-27T23:08:07.309Z,101773.66
2022-12-27T23:11:24.866Z,101770.22
2022-12-27T23:14:33.148Z,101777.09
2022-12-27T23:17:41.730Z,101774.41
2022-12-27T23:21:20.674Z,101769.84
2022-12-27T23:24:24.774Z,101783.59
2022-12-27T23:27:39.142Z,101770.94
2022-12-27T23:30:56.145Z,101775.50
2022-12-27T23:33:58.218Z,101774.75
2022-12-27T23:37:13.137Z,101771.44
2022-12-27T23:40:22.113Z,101764.03
2022-12-27T23:43:52.271Z,101750.97
2022-12-27T23:47:02.183Z,101750.00
2022-12-27T23:50:20.793Z,101735.31
2022-12-27T23:53:29.939Z,101735.44
2022-12-27T23:56:45.103Z,101726.00
